sensor_id;sensor_type;location;lat;lon;timestamp;pressure;altitude;pressure_sealevel;temperature;humidity
72308;BME280;60257;42.638;23.376;2023-07-13T00:01:50;94871.19;;;22.14;52.53
72308;BME280;60257;42.638;23.376;2023-07-13T00:04:21;94869.97;;;22.15;52.56
72308;BME280;60257;42.638;23.376;2023-07-13T00:06:48;94868.81;;;22.13;52.54
72308;BME280;60257;42.638;23.376;2023-07-13T00:09:15;94870.03;;;22.08;52.88
72308;BME280;60257;42.638;23.376;2023-07-13T00:11:42;94866.19;;;21.92;53.49
72308;BME280;60257;42.638;23.376;2023-07-13T00:14:09;94867.38;;;21.94;53.23
72308;BME280;60257;42.638;23.376;2023-07-13T00:16:36;94859.06;;;21.91;53.57
72308;BME280;60257;42.638;23.376;2023-07-13T00:19:03;94866.63;;;21.90;54.05
72308;BME280;60257;42.638;23.376;2023-07-13T00:21:28;94859.91;;;21.84;54.52
72308;BME280;60257;42.638;23.376;2023-07-13T00:23:58;94861.16;;;21.79;54.38
72308;BME280;60257;42.638;23.376;2023-07-13T00:26:23;94866.28;;;21.84;53.86
72308;BME280;60257;42.638;23.376;2023-07-13T00:28:49;94871.44;;;21.86;53.86
72308;BME280;60257;42.638;23.376;2023-07-13T00:31:15;94865.19;;;21.75;53.51
72308;BME280;60257;42.638;23.376;2023-07-13T00:33:41;94866.31;;;21.81;53.14
72308;BME280;60257;42.638;23.376;2023-07-13T00:36:08;94862.34;;;21.78;53.45
72308;BME280;60257;42.638;23.376;2023-07-13T00:38:33;94861.63;;;21.74;54.10
72308;BME280;60257;42.638;23.376;2023-07-13T00:40:59;94860.44;;;21.72;54.25
72308;BME280;60257;42.638;23.376;2023-07-13T00:43:26;94863.25;;;21.68;54.86
72308;BME280;60257;42.638;23.376;2023-07-13T00:48:27;94860.97;;;21.60;55.02
72308;BME280;60257;42.638;23.376;2023-07-13T00:50:56;94853.72;;;21.66;55.41
72308;BME280;60257;42.638;23.376;2023-07-13T00:53:24;94843.81;;;21.58;55.41
72308;BME280;60257;42.638;23.376;2023-07-13T00:55:51;94849.41;;;21.58;55.10
72308;BME280;60257;42.638;23.376;2023-07-13T00:58:19;94848.63;;;21.54;55.50
72308;BME280;60257;42.638;23.376;2023-07-13T01:00:46;94840.34;;;21.46;55.58
72308;BME280;60257;42.638;23.376;2023-07-13T01:03:14;94836.34;;;21.47;55.47
72308;BME280;60257;42.638;23.376;2023-07-13T01:05:40;94851.13;;;21.44;55.70
72308;BME280;60257;42.638;23.376;2023-07-13T01:08:05;94844.38;;;21.42;56.10
72308;BME280;60257;42.638;23.376;2023-07-13T01:10:31;94842.41;;;21.39;56.48
72308;BME280;60257;42.638;23.376;2023-07-13T01:13:05;94831.69;;;21.34;56.48
72308;BME280;60257;42.638;23.376;2023-07-13T01:15:43;94832.91;;;21.29;56.63
72308;BME280;60257;42.638;23.376;2023-07-13T01:18:12;94839.00;;;21.17;57.41
72308;BME280;60257;42.638;23.376;2023-07-13T01:20:39;94839.78;;;21.18;57.80
72308;BME280;60257;42.638;23.376;2023-07-13T01:23:07;94848.53;;;21.16;57.63
72308;BME280;60257;42.638;23.376;2023-07-13T01:25:35;94852.16;;;21.17;57.34
72308;BME280;60257;42.638;23.376;2023-07-13T01:28:02;94846.94;;;21.15;57.04
72308;BME280;60257;42.638;23.376;2023-07-13T01:30:28;94839.41;;;21.12;56.63
72308;BME280;60257;42.638;23.376;2023-07-13T01:32:53;94841.00;;;21.13;56.86
72308;BME280;60257;42.638;23.376;2023-07-13T01:35:19;94841.41;;;21.11;56.97
72308;BME280;60257;42.638;23.376;2023-07-13T01:37:44;94852.53;;;21.15;56.68
72308;BME280;60257;42.638;23.376;2023-07-13T01:40:11;94846.59;;;21.09;56.79
72308;BME280;60257;42.638;23.376;2023-07-13T01:42:37;94841.41;;;21.08;56.81
72308;BME280;60257;42.638;23.376;2023-07-13T01:45:03;94843.84;;;21.06;56.91
72308;BME280;60257;42.638;23.376;2023-07-13T01:47:29;94852.22;;;21.06;57.22
72308;BME280;60257;42.638;23.376;2023-07-13T01:49:58;94849.44;;;21.02;57.35
72308;BME280;60257;42.638;23.376;2023-07-13T01:52:24;94840.28;;;20.98;57.40
72308;BME280;60257;42.638;23.376;2023-07-13T01:54:50;94828.38;;;20.94;57.34
72308;BME280;60257;42.638;23.376;2023-07-13T01:57:15;94844.25;;;21.04;57.44
72308;BME280;60257;42.638;23.376;2023-07-13T01:59:41;94834.31;;;21.00;57.72
72308;BME280;60257;42.638;23.376;2023-07-13T02:02:06;94831.19;;;20.91;58.09
72308;BME280;60257;42.638;23.376;2023-07-13T02:04:32;94833.22;;;20.87;58.42
72308;BME280;60257;42.638;23.376;2023-07-13T02:06:58;94846.81;;;20.81;58.58
72308;BME280;60257;42.638;23.376;2023-07-13T02:09:23;94838.91;;;20.69;58.68
72308;BME280;60257;42.638;23.376;2023-07-13T02:11:49;94846.41;;;20.75;58.48
72308;BME280;60257;42.638;23.376;2023-07-13T02:14:14;94848.84;;;20.70;58.87
72308;BME280;60257;42.638;23.376;2023-07-13T02:16:41;94849.59;;;20.78;58.71
72308;BME280;60257;42.638;23.376;2023-07-13T02:19:07;94839.69;;;20.73;59.11
72308;BME280;60257;42.638;23.376;2023-07-13T02:21:33;94849.28;;;20.65;58.91
72308;BME280;60257;42.638;23.376;2023-07-13T02:23:58;94841.69;;;20.72;58.76
72308;BME280;60257;42.638;23.376;2023-07-13T02:26:25;94850.78;;;20.77;58.78
72308;BME280;60257;42.638;23.376;2023-07-13T02:28:50;94850.84;;;20.73;59.10
72308;BME280;60257;42.638;23.376;2023-07-13T02:31:16;94863.19;;;20.68;59.16
72308;BME280;60257;42.638;23.376;2023-07-13T02:33:42;94857.25;;;20.63;59.24
72308;BME280;60257;42.638;23.376;2023-07-13T02:36:08;94858.44;;;20.62;59.65
72308;BME280;60257;42.638;23.376;2023-07-13T02:38:35;94851.31;;;20.57;59.67
72308;BME280;60257;42.638;23.376;2023-07-13T02:41:05;94857.28;;;20.56;59.52
72308;BME280;60257;42.638;23.376;2023-07-13T02:43:31;94859.69;;;20.54;59.32
72308;BME280;60257;42.638;23.376;2023-07-13T02:45:56;94858.09;;;20.53;59.10
72308;BME280;60257;42.638;23.376;2023-07-13T02:48:25;94848.53;;;20.57;59.26
72308;BME280;60257;42.638;23.376;2023-07-13T02:50:51;94855.28;;;20.60;59.33
72308;BME280;60257;42.638;23.376;2023-07-13T02:53:16;94837.81;;;20.52;59.24
72308;BME280;60257;42.638;23.376;2023-07-13T02:55:42;94853.66;;;20.66;58.86
72308;BME280;60257;42.638;23.376;2023-07-13T02:58:12;94858.44;;;20.62;58.90
72308;BME280;60257;42.638;23.376;2023-07-13T03:00:42;94846.91;;;20.60;58.93
72308;BME280;60257;42.638;23.376;2023-07-13T03:03:08;94855.66;;;20.62;58.90
72308;BME280;60257;42.638;23.376;2023-07-13T03:05:33;94862.06;;;20.59;59.16
72308;BME280;60257;42.638;23.376;2023-07-13T03:07:58;94852.91;;;20.58;59.38
72308;BME280;60257;42.638;23.376;2023-07-13T03:10:24;94851.72;;;20.52;59.34
72308;BME280;60257;42.638;23.376;2023-07-13T03:12:50;94858.84;;;20.64;59.38
72308;BME280;60257;42.638;23.376;2023-07-13T03:15:16;94855.66;;;20.65;59.08
72308;BME280;60257;42.638;23.376;2023-07-13T03:17:41;94862.34;;;20.79;58.72
72308;BME280;60257;42.638;23.376;2023-07-13T03:20:07;94860.41;;;20.72;58.89
72308;BME280;60257;42.638;23.376;2023-07-13T03:22:33;94875.91;;;20.73;59.11
72308;BME280;60257;42.638;23.376;2023-07-13T03:24:58;94866.38;;;20.74;59.08
72308;BME280;60257;42.638;23.376;2023-07-13T03:27:24;94873.94;;;20.73;59.36
72308;BME280;60257;42.638;23.376;2023-07-13T03:29:49;94865.97;;;20.68;59.48
72308;BME280;60257;42.638;23.376;2023-07-13T03:32:15;94863.13;;;20.79;59.30
72308;BME280;60257;42.638;23.376;2023-07-13T03:34:40;94870.75;;;20.68;59.66
72308;BME280;60257;42.638;23.376;2023-07-13T03:37:06;94877.94;;;20.65;59.95
72308;BME280;60257;42.638;23.376;2023-07-13T03:39:31;94880.69;;;20.69;59.80
72308;BME280;60257;42.638;23.376;2023-07-13T03:41:56;94872.34;;;20.72;59.96
72308;BME280;60257;42.638;23.376;2023-07-13T03:44:22;94873.94;;;20.70;60.26
72308;BME280;60257;42.638;23.376;2023-07-13T03:46:47;94874.28;;;20.75;60.18
72308;BME280;60257;42.638;23.376;2023-07-13T03:49:13;94870.75;;;20.71;60.16
72308;BME280;60257;42.638;23.376;2023-07-13T03:51:38;94876.66;;;20.81;60.02
72308;BME280;60257;42.638;23.376;2023-07-13T03:54:04;94863.88;;;20.83;60.02
72308;BME280;60257;42.638;23.376;2023-07-13T03:56:30;94863.53;;;20.81;60.29
72308;BME280;60257;42.638;23.376;2023-07-13T03:58:57;94877.81;;;20.83;60.28
72308;BME280;60257;42.638;23.376;2023-07-13T04:01:24;94873.09;;;20.77;60.32
72308;BME280;60257;42.638;23.376;2023-07-13T04:03:53;94855.22;;;20.74;60.36
72308;BME280;60257;42.638;23.376;2023-07-13T04:06:25;94870.69;;;20.79;59.60
72308;BME280;60257;42.638;23.376;2023-07-13T04:08:58;94875.94;;;20.69;59.86
72308;BME280;60257;42.638;23.376;2023-07-13T04:11:27;94873.09;;;20.77;59.94
72308;BME280;60257;42.638;23.376;2023-07-13T04:13:54;94865.06;;;20.89;60.13
72308;BME280;60257;42.638;23.376;2023-07-13T04:16:19;94864.63;;;20.91;60.75
72308;BME280;60257;42.638;23.376;2023-07-13T04:18:45;94864.63;;;20.98;60.48
72308;BME280;60257;42.638;23.376;2023-07-13T04:21:12;94875.28;;;21.10;61.16
72308;BME280;60257;42.638;23.376;2023-07-13T04:23:38;94869.28;;;21.11;60.59
72308;BME280;60257;42.638;23.376;2023-07-13T04:26:03;94882.75;;;21.24;61.02
72308;BME280;60257;42.638;23.376;2023-07-13T04:28:29;94878.31;;;21.37;61.11
72308;BME280;60257;42.638;23.376;2023-07-13T04:30:55;94877.00;;;21.45;60.52
72308;BME280;60257;42.638;23.376;2023-07-13T04:33:22;94890.09;;;21.55;60.24
72308;BME280;60257;42.638;23.376;2023-07-13T04:35:49;94880.44;;;21.63;60.73
72308;BME280;60257;42.638;23.376;2023-07-13T04:38:15;94887.16;;;21.69;60.56
72308;BME280;60257;42.638;23.376;2023-07-13T04:40:44;94888.69;;;21.77;60.18
72308;BME280;60257;42.638;23.376;2023-07-13T04:43:10;94893.44;;;21.80;60.40
72308;BME280;60257;42.638;23.376;2023-07-13T04:45:36;94901.34;;;21.89;60.24
72308;BME280;60257;42.638;23.376;2023-07-13T04:48:01;94896.06;;;22.02;60.33
72308;BME280;60257;42.638;23.376;2023-07-13T04:50:27;94898.81;;;22.05;60.00
72308;BME280;60257;42.638;23.376;2023-07-13T04:52:52;94901.16;;;22.10;59.40
72308;BME280;60257;42.638;23.376;2023-07-13T04:55:18;94891.56;;;22.11;58.90
72308;BME280;60257;42.638;23.376;2023-07-13T04:57:44;94910.13;;;22.29;59.15
72308;BME280;60257;42.638;23.376;2023-07-13T05:00:11;94903.75;;;22.28;57.61
72308;BME280;60257;42.638;23.376;2023-07-13T05:02:38;94910.84;;;22.36;57.04
72308;BME280;60257;42.638;23.376;2023-07-13T05:05:05;94909.22;;;22.39;57.39
72308;BME280;60257;42.638;23.376;2023-07-13T05:07:31;94914.34;;;22.44;58.00
72308;BME280;60257;42.638;23.376;2023-07-13T05:09:59;94906.72;;;22.48;57.67
72308;BME280;60257;42.638;23.376;2023-07-13T05:12:25;94907.38;;;22.59;58.42
72308;BME280;60257;42.638;23.376;2023-07-13T05:14:50;94905.31;;;22.63;58.00
72308;BME280;60257;42.638;23.376;2023-07-13T05:17:16;94917.22;;;22.74;57.30
72308;BME280;60257;42.638;23.376;2023-07-13T05:19:41;94923.13;;;22.80;57.17
72308;BME280;60257;42.638;23.376;2023-07-13T05:22:07;94925.03;;;22.86;57.50
72308;BME280;60257;42.638;23.376;2023-07-13T05:24:33;94920.13;;;22.94;56.92
72308;BME280;60257;42.638;23.376;2023-07-13T05:26:59;94922.81;;;23.01;56.84
72308;BME280;60257;42.638;23.376;2023-07-13T05:29:24;94922.56;;;23.19;57.32
72308;BME280;60257;42.638;23.376;2023-07-13T05:31:50;94912.06;;;23.26;56.87
72308;BME280;60257;42.638;23.376;2023-07-13T05:34:16;94924.78;;;23.31;56.88
72308;BME280;60257;42.638;23.376;2023-07-13T05:36:41;94917.56;;;23.33;56.71
72308;BME280;60257;42.638;23.376;2023-07-13T05:39:07;94921.00;;;23.45;56.02
72308;BME280;60257;42.638;23.376;2023-07-13T05:41:33;94913.03;;;23.43;56.76
72308;BME280;60257;42.638;23.376;2023-07-13T05:43:58;94922.69;;;23.65;55.63
72308;BME280;60257;42.638;23.376;2023-07-13T05:46:24;94931.69;;;23.53;57.25
72308;BME280;60257;42.638;23.376;2023-07-13T05:48:50;94918.19;;;23.45;56.20
72308;BME280;60257;42.638;23.376;2023-07-13T05:51:15;94915.25;;;23.55;56.49
72308;BME280;60257;42.638;23.376;2023-07-13T05:53:41;94930.19;;;23.72;56.85
72308;BME280;60257;42.638;23.376;2023-07-13T05:56:06;94917.22;;;23.82;55.89
72308;BME280;60257;42.638;23.376;2023-07-13T05:58:32;94927.75;;;23.97;55.46
72308;BME280;60257;42.638;23.376;2023-07-13T06:01:02;94927.19;;;24.06;55.24
72308;BME280;60257;42.638;23.376;2023-07-13T06:03:29;94915.88;;;24.13;55.18
72308;BME280;60257;42.638;23.376;2023-07-13T06:05:54;94921.97;;;24.31;55.23
72308;BME280;60257;42.638;23.376;2023-07-13T06:08:20;94915.78;;;24.40;55.51
72308;BME280;60257;42.638;23.376;2023-07-13T06:10:45;94911.47;;;24.55;55.91
72308;BME280;60257;42.638;23.376;2023-07-13T06:13:11;94913.69;;;24.64;55.19
72308;BME280;60257;42.638;23.376;2023-07-13T06:15:36;94905.44;;;24.76;54.28
72308;BME280;60257;42.638;23.376;2023-07-13T06:18:02;94905.72;;;24.82;54.14
72308;BME280;60257;42.638;23.376;2023-07-13T06:20:28;94920.03;;;24.87;54.33
72308;BME280;60257;42.638;23.376;2023-07-13T06:22:54;94920.81;;;24.88;53.94
72308;BME280;60257;42.638;23.376;2023-07-13T06:25:19;94928.44;;;24.87;54.22
72308;BME280;60257;42.638;23.376;2023-07-13T06:27:45;94930.25;;;24.98;53.73
72308;BME280;60257;42.638;23.376;2023-07-13T06:30:11;94916.44;;;25.07;53.93
72308;BME280;60257;42.638;23.376;2023-07-13T06:32:37;94921.00;;;25.17;53.87
72308;BME280;60257;42.638;23.376;2023-07-13T06:35:03;94917.06;;;25.14;53.57
72308;BME280;60257;42.638;23.376;2023-07-13T06:37:29;94913.31;;;25.21;52.89
72308;BME280;60257;42.638;23.376;2023-07-13T06:39:54;94919.56;;;25.28;51.59
72308;BME280;60257;42.638;23.376;2023-07-13T06:42:20;94907.09;;;25.29;52.04
72308;BME280;60257;42.638;23.376;2023-07-13T06:44:45;94914.03;;;25.41;52.13
72308;BME280;60257;42.638;23.376;2023-07-13T06:47:11;94916.25;;;25.50;52.58
72308;BME280;60257;42.638;23.376;2023-07-13T06:49:37;94916.06;;;25.57;51.20
72308;BME280;60257;42.638;23.376;2023-07-13T06:52:03;94913.38;;;25.53;50.17
72308;BME280;60257;42.638;23.376;2023-07-13T06:54:29;94912.94;;;25.55;48.87
72308;BME280;60257;42.638;23.376;2023-07-13T06:56:54;94909.22;;;25.58;49.16
72308;BME280;60257;42.638;23.376;2023-07-13T06:59:20;94907.59;;;25.60;48.89
72308;BME280;60257;42.638;23.376;2023-07-13T07:01:45;94913.03;;;25.67;49.93
72308;BME280;60257;42.638;23.376;2023-07-13T07:04:11;94909.69;;;25.73;50.11
72308;BME280;60257;42.638;23.376;2023-07-13T07:06:36;94908.22;;;25.84;49.82
72308;BME280;60257;42.638;23.376;2023-07-13T07:09:02;94903.81;;;25.99;48.72
72308;BME280;60257;42.638;23.376;2023-07-13T07:11:28;94918.84;;;26.09;48.86
72308;BME280;60257;42.638;23.376;2023-07-13T07:13:53;94917.06;;;26.15;48.74
72308;BME280;60257;42.638;23.376;2023-07-13T07:16:20;94925.94;;;26.14;48.37
72308;BME280;60257;42.638;23.376;2023-07-13T07:18:46;94903.63;;;26.06;48.10
72308;BME280;60257;42.638;23.376;2023-07-13T07:21:12;94916.63;;;26.17;47.86
72308;BME280;60257;42.638;23.376;2023-07-13T07:23:38;94920.31;;;26.14;47.45
72308;BME280;60257;42.638;23.376;2023-07-13T07:26:04;94902.66;;;26.13;47.33
72308;BME280;60257;42.638;23.376;2023-07-13T07:28:30;94902.81;;;26.22;47.19
72308;BME280;60257;42.638;23.376;2023-07-13T07:30:57;94910.53;;;26.34;46.03
72308;BME280;60257;42.638;23.376;2023-07-13T07:33:24;94904.28;;;26.43;46.74
72308;BME280;60257;42.638;23.376;2023-07-13T07:35:50;94916.38;;;26.56;47.19
72308;BME280;60257;42.638;23.376;2023-07-13T07:38:16;94916.38;;;26.56;47.19
72308;BME280;60257;42.638;23.376;2023-07-13T07:40:42;94904.03;;;26.66;45.78
72308;BME280;60257;42.638;23.376;2023-07-13T07:43:08;94900.22;;;26.73;46.15
72308;BME280;60257;42.638;23.376;2023-07-13T07:45:34;94894.97;;;26.88;46.08
72308;BME280;60257;42.638;23.376;2023-07-13T07:48:00;94897.00;;;26.87;45.84
72308;BME280;60257;42.638;23.376;2023-07-13T07:50:26;94895.56;;;26.95;46.47
72308;BME280;60257;42.638;23.376;2023-07-13T07:52:52;94885.38;;;27.01;45.32
72308;BME280;60257;42.638;23.376;2023-07-13T07:55:18;94887.16;;;27.08;45.48
72308;BME280;60257;42.638;23.376;2023-07-13T07:57:44;94893.59;;;27.08;45.61
72308;BME280;60257;42.638;23.376;2023-07-13T08:00:09;94889.41;;;27.13;46.35
72308;BME280;60257;42.638;23.376;2023-07-13T08:02:35;94893.50;;;27.25;46.67
72308;BME280;60257;42.638;23.376;2023-07-13T08:05:01;94874.56;;;27.12;45.55
72308;BME280;60257;42.638;23.376;2023-07-13T08:07:26;94882.47;;;27.17;46.12
72308;BME280;60257;42.638;23.376;2023-07-13T08:09:52;94874.81;;;27.31;47.42
72308;BME280;60257;42.638;23.376;2023-07-13T08:12:18;94867.25;;;27.40;47.55
72308;BME280;60257;42.638;23.376;2023-07-13T08:14:44;94864.31;;;27.44;47.15
72308;BME280;60257;42.638;23.376;2023-07-13T08:17:09;94864.88;;;27.51;47.64
72308;BME280;60257;42.638;23.376;2023-07-13T08:19:35;94856.88;;;27.37;47.63
72308;BME280;60257;42.638;23.376;2023-07-13T08:22:00;94859.16;;;27.55;47.73
72308;BME280;60257;42.638;23.376;2023-07-13T08:24:26;94862.84;;;27.65;47.69
72308;BME280;60257;42.638;23.376;2023-07-13T08:26:51;94857.34;;;27.61;47.34
72308;BME280;60257;42.638;23.376;2023-07-13T08:29:17;94853.50;;;27.68;47.67
72308;BME280;60257;42.638;23.376;2023-07-13T08:31:43;94846.06;;;27.74;46.92
72308;BME280;60257;42.638;23.376;2023-07-13T08:34:08;94847.63;;;27.87;46.02
72308;BME280;60257;42.638;23.376;2023-07-13T08:36:34;94841.06;;;27.90;46.39
72308;BME280;60257;42.638;23.376;2023-07-13T08:38:59;94848.38;;;27.88;46.25
72308;BME280;60257;42.638;23.376;2023-07-13T08:41:26;94840.94;;;27.94;46.67
72308;BME280;60257;42.638;23.376;2023-07-13T08:43:56;94835.84;;;28.02;45.71
72308;BME280;60257;42.638;23.376;2023-07-13T08:46:36;94845.41;;;28.17;45.00
72308;BME280;60257;42.638;23.376;2023-07-13T08:49:10;94832.09;;;28.17;44.43
72308;BME280;60257;42.638;23.376;2023-07-13T08:51:46;94840.63;;;28.26;44.66
72308;BME280;60257;42.638;23.376;2023-07-13T08:54:26;94844.91;;;28.31;43.23
72308;BME280;60257;42.638;23.376;2023-07-13T08:56:53;94844.44;;;28.32;43.01
72308;BME280;60257;42.638;23.376;2023-07-13T08:59:29;94845.44;;;28.39;43.44
72308;BME280;60257;42.638;23.376;2023-07-13T09:07:20;94862.56;;;28.44;43.09
72308;BME280;60257;42.638;23.376;2023-07-13T09:10:18;94868.38;;;28.50;43.37
72308;BME280;60257;42.638;23.376;2023-07-13T09:15:27;94875.75;;;28.69;42.34
72308;BME280;60257;42.638;23.376;2023-07-13T09:18:01;94878.34;;;28.76;42.17
72308;BME280;60257;42.638;23.376;2023-07-13T09:33:26;94873.34;;;27.64;45.91
72308;BME280;60257;42.638;23.376;2023-07-13T09:35:55;94875.97;;;28.06;44.84
72308;BME280;60257;42.638;23.376;2023-07-13T09:38:24;94874.63;;;28.45;43.11
72308;BME280;60257;42.638;23.376;2023-07-13T09:48:17;94860.41;;;28.70;42.05
72308;BME280;60257;42.638;23.376;2023-07-13T09:50:44;94871.06;;;28.88;43.04
72308;BME280;60257;42.638;23.376;2023-07-13T09:53:18;94863.66;;;29.12;42.41
72308;BME280;60257;42.638;23.376;2023-07-13T09:55:46;94850.75;;;29.33;42.04
72308;BME280;60257;42.638;23.376;2023-07-13T09:58:18;94834.88;;;29.57;40.52
72308;BME280;60257;42.638;23.376;2023-07-13T10:01:00;94832.06;;;29.75;42.05
72308;BME280;60257;42.638;23.376;2023-07-13T10:03:32;94833.84;;;29.91;41.77
72308;BME280;60257;42.638;23.376;2023-07-13T10:06:20;94829.16;;;30.06;40.14
72308;BME280;60257;42.638;23.376;2023-07-13T10:08:49;94826.22;;;30.19;39.44
72308;BME280;60257;42.638;23.376;2023-07-13T10:11:29;94819.75;;;30.28;39.61
72308;BME280;60257;42.638;23.376;2023-07-13T10:13:57;94814.41;;;30.39;38.80
72308;BME280;60257;42.638;23.376;2023-07-13T10:16:27;94822.75;;;30.51;38.79
72308;BME280;60257;42.638;23.376;2023-07-13T10:18:59;94823.22;;;30.50;38.18
72308;BME280;60257;42.638;23.376;2023-07-13T10:21:33;94818.97;;;30.45;37.99
72308;BME280;60257;42.638;23.376;2023-07-13T10:24:14;94819.13;;;30.51;37.61
72308;BME280;60257;42.638;23.376;2023-07-13T10:27:19;94817.72;;;30.65;38.75
72308;BME280;60257;42.638;23.376;2023-07-13T10:32:13;94811.69;;;30.90;38.88
72308;BME280;60257;42.638;23.376;2023-07-13T10:34:45;94805.84;;;31.03;39.83
72308;BME280;60257;42.638;23.376;2023-07-13T10:37:20;94808.69;;;31.12;39.12
72308;BME280;60257;42.638;23.376;2023-07-13T10:39:48;94806.31;;;31.19;39.21
72308;BME280;60257;42.638;23.376;2023-07-13T10:42:35;94799.03;;;31.27;38.11
72308;BME280;60257;42.638;23.376;2023-07-13T10:45:40;94798.97;;;31.36;36.88
72308;BME280;60257;42.638;23.376;2023-07-13T10:47:58;94791.47;;;31.24;36.16
72308;BME280;60257;42.638;23.376;2023-07-13T10:50:26;94787.06;;;31.23;36.69
72308;BME280;60257;42.638;23.376;2023-07-13T10:53:02;94779.81;;;31.22;36.35
72308;BME280;60257;42.638;23.376;2023-07-13T10:58:38;94767.72;;;31.55;36.50
72308;BME280;60257;42.638;23.376;2023-07-13T11:01:17;94777.41;;;31.72;37.27
72308;BME280;60257;42.638;23.376;2023-07-13T11:06:12;94762.44;;;31.95;35.50
72308;BME280;60257;42.638;23.376;2023-07-13T11:08:53;94764.38;;;31.89;34.52
72308;BME280;60257;42.638;23.376;2023-07-13T11:18:45;94750.78;;;32.17;34.73
72308;BME280;60257;42.638;23.376;2023-07-13T11:21:18;94740.94;;;32.27;34.36
72308;BME280;60257;42.638;23.376;2023-07-13T11:23:51;94736.72;;;32.37;34.51
72308;BME280;60257;42.638;23.376;2023-07-13T11:26:50;94736.75;;;32.52;33.68
72308;BME280;60257;42.638;23.376;2023-07-13T11:31:58;94739.72;;;32.72;33.61
72308;BME280;60257;42.638;23.376;2023-07-13T11:34:35;94733.94;;;32.67;32.83
72308;BME280;60257;42.638;23.376;2023-07-13T11:37:01;94726.09;;;32.76;32.72
72308;BME280;60257;42.638;23.376;2023-07-13T11:39:32;94727.09;;;32.88;32.61
72308;BME280;60257;42.638;23.376;2023-07-13T11:42:01;94726.19;;;32.97;32.06
72308;BME280;60257;42.638;23.376;2023-07-13T11:44:30;94719.03;;;33.01;30.81
72308;BME280;60257;42.638;23.376;2023-07-13T11:46:58;94727.03;;;33.17;32.23
72308;BME280;60257;42.638;23.376;2023-07-13T11:49:30;94724.50;;;33.19;31.32
72308;BME280;60257;42.638;23.376;2023-07-13T11:51:57;94729.81;;;32.97;31.40
72308;BME280;60257;42.638;23.376;2023-07-13T11:54:29;94724.13;;;33.12;31.14
72308;BME280;60257;42.638;23.376;2023-07-13T11:56:58;94719.59;;;33.20;31.85
72308;BME280;60257;42.638;23.376;2023-07-13T11:59:25;94709.44;;;33.13;32.16
72308;BME280;60257;42.638;23.376;2023-07-13T12:01:53;94715.00;;;33.22;31.74
72308;BME280;60257;42.638;23.376;2023-07-13T12:04:26;94704.00;;;33.30;29.36
72308;BME280;60257;42.638;23.376;2023-07-13T12:07:05;94688.81;;;33.33;29.53
72308;BME280;60257;42.638;23.376;2023-07-13T12:09:33;94692.69;;;33.50;29.75
72308;BME280;60257;42.638;23.376;2023-07-13T12:11:59;94691.53;;;33.62;30.52
72308;BME280;60257;42.638;23.376;2023-07-13T12:14:27;94687.97;;;33.82;29.57
72308;BME280;60257;42.638;23.376;2023-07-13T12:16:53;94697.19;;;33.97;28.66
72308;BME280;60257;42.638;23.376;2023-07-13T12:19:25;94684.94;;;34.12;28.53
72308;BME280;60257;42.638;23.376;2023-07-13T12:21:54;94681.03;;;34.09;28.37
72308;BME280;60257;42.638;23.376;2023-07-13T12:24:21;94687.00;;;34.11;28.33
72308;BME280;60257;42.638;23.376;2023-07-13T12:27:02;94676.69;;;34.14;28.12
72308;BME280;60257;42.638;23.376;2023-07-13T12:29:29;94666.63;;;34.18;28.19
72308;BME280;60257;42.638;23.376;2023-07-13T12:31:55;94668.06;;;34.28;28.29
72308;BME280;60257;42.638;23.376;2023-07-13T12:34:23;94661.44;;;34.37;28.91
72308;BME280;60257;42.638;23.376;2023-07-13T12:36:58;94664.88;;;34.47;29.30
72308;BME280;60257;42.638;23.376;2023-07-13T12:39:33;94661.81;;;34.50;29.08
72308;BME280;60257;42.638;23.376;2023-07-13T12:44:43;94655.44;;;34.61;29.64
72308;BME280;60257;42.638;23.376;2023-07-13T12:47:12;94651.56;;;34.64;28.76
72308;BME280;60257;42.638;23.376;2023-07-13T12:49:47;94646.00;;;34.75;28.38
72308;BME280;60257;42.638;23.376;2023-07-13T12:52:15;94640.56;;;34.77;27.98
72308;BME280;60257;42.638;23.376;2023-07-13T12:54:42;94641.34;;;34.78;27.61
72308;BME280;60257;42.638;23.376;2023-07-13T12:57:15;94639.28;;;34.78;27.82
72308;BME280;60257;42.638;23.376;2023-07-13T12:59:42;94640.34;;;34.81;27.54
72308;BME280;60257;42.638;23.376;2023-07-13T13:02:28;94641.53;;;34.68;26.34
72308;BME280;60257;42.638;23.376;2023-07-13T13:04:56;94643.72;;;34.53;26.40
72308;BME280;60257;42.638;23.376;2023-07-13T13:07:23;94640.75;;;34.68;27.37
72308;BME280;60257;42.638;23.376;2023-07-13T13:09:48;94637.50;;;34.81;27.01
72308;BME280;60257;42.638;23.376;2023-07-13T13:12:14;94632.13;;;34.88;27.83
72308;BME280;60257;42.638;23.376;2023-07-13T13:14:40;94620.81;;;34.99;27.67
72308;BME280;60257;42.638;23.376;2023-07-13T13:17:18;94620.34;;;35.06;26.79
72308;BME280;60257;42.638;23.376;2023-07-13T13:19:45;94625.25;;;35.06;27.04
72308;BME280;60257;42.638;23.376;2023-07-13T13:22:11;94623.19;;;35.06;25.63
72308;BME280;60257;42.638;23.376;2023-07-13T13:24:36;94617.22;;;35.04;26.94
72308;BME280;60257;42.638;23.376;2023-07-13T13:27:02;94613.84;;;35.06;25.64
72308;BME280;60257;42.638;23.376;2023-07-13T13:29:27;94617.88;;;34.88;26.55
72308;BME280;60257;42.638;23.376;2023-07-13T13:31:54;94623.25;;;34.81;26.02
72308;BME280;60257;42.638;23.376;2023-07-13T13:34:21;94613.28;;;34.96;25.09
72308;BME280;60257;42.638;23.376;2023-07-13T13:36:50;94611.00;;;35.06;26.02
72308;BME280;60257;42.638;23.376;2023-07-13T13:39:29;94607.66;;;35.07;27.76
72308;BME280;60257;42.638;23.376;2023-07-13T13:41:56;94614.16;;;35.13;25.85
72308;BME280;60257;42.638;23.376;2023-07-13T13:44:22;94606.94;;;35.18;25.08
72308;BME280;60257;42.638;23.376;2023-07-13T13:46:51;94612.69;;;35.24;24.54